createdAt,value
2022-11-07T00:01:23.460Z,66.52
2022-11-07T00:03:53.698Z,67.39
2022-11-07T00:06:20.386Z,66.36
2022-11-07T00:08:47.028Z,65.58
2022-11-07T00:11:13.689Z,64.57
2022-11-07T00:13:40.315Z,64.44
2022-11-07T00:16:08.977Z,64.47
2022-11-07T00:18:35.948Z,63.62
2022-11-07T00:21:03.762Z,63.43
2022-11-07T00:23:30.651Z,63.43
2022-11-07T00:26:05.434Z,63.54
2022-11-07T00:28:39.899Z,63.94
2022-11-07T00:31:08.085Z,66.82
2022-11-07T00:33:35.254Z,67.49
2022-11-07T00:36:02.488Z,66.55
2022-11-07T00:38:29.108Z,66.04
2022-11-07T00:40:56.287Z,65.47
2022-11-07T00:43:23.866Z,65.80
2022-11-07T00:45:50.665Z,66.93
2022-11-07T00:48:18.078Z,66.60
2022-11-07T00:50:44.657Z,65.85
2022-11-07T00:53:11.440Z,65.03
2022-11-07T00:55:38.274Z,64.34
2022-11-07T00:58:08.656Z,63.93
2022-11-07T01:00:39.289Z,63.95
2022-11-07T01:03:24.176Z,63.88
2022-11-07T01:06:02.419Z,63.69
2022-11-07T01:08:29.432Z,64.16
2022-11-07T01:10:56.331Z,64.23
2022-11-07T01:13:24.483Z,64.15
2022-11-07T01:15:51.995Z,64.05
2022-11-07T01:18:18.665Z,63.85
2022-11-07T01:20:45.365Z,64.37
2022-11-07T01:23:12.229Z,64.69
2022-11-07T01:25:40.014Z,65.00
2022-11-07T01:28:07.418Z,64.53
2022-11-07T01:30:37.545Z,63.98
2022-11-07T01:33:04.349Z,63.81
2022-11-07T01:35:32.990Z,66.12
2022-11-07T01:37:59.653Z,67.08
2022-11-07T01:40:26.631Z,67.14
2022-11-07T01:42:53.305Z,67.03
2022-11-07T01:45:24.143Z,67.66
2022-11-07T01:47:53.325Z,68.54
2022-11-07T01:50:21.379Z,69.71
2022-11-07T01:52:52.432Z,67.54
2022-11-07T01:55:27.382Z,66.63
2022-11-07T01:58:08.360Z,67.29
2022-11-07T02:00:35.714Z,67.21
2022-11-07T02:03:11.781Z,67.83
2022-11-07T02:05:44.346Z,67.29
2022-11-07T02:08:14.091Z,66.90
2022-11-07T02:10:42.016Z,66.28
2022-11-07T02:13:09.268Z,66.71
2022-11-07T02:15:36.854Z,66.22
2022-11-07T02:18:03.874Z,67.66
2022-11-07T02:20:30.511Z,69.27
2022-11-07T02:23:26.678Z,69.87
2022-11-07T02:25:54.332Z,68.89
2022-11-07T02:28:23.837Z,67.44
2022-11-07T02:30:50.471Z,66.67
2022-11-07T02:33:21.742Z,68.16
2022-11-07T02:35:51.076Z,67.87
2022-11-07T02:38:22.676Z,66.83
2022-11-07T02:40:58.514Z,65.89
2022-11-07T02:43:29.415Z,65.66
2022-11-07T02:45:59.039Z,65.13
2022-11-07T02:48:29.999Z,65.46
2022-11-07T02:50:56.904Z,64.67
2022-11-07T02:53:23.927Z,64.24
2022-11-07T02:55:50.595Z,65.28
2022-11-07T02:58:17.404Z,66.42
2022-11-07T03:00:44.062Z,66.14
2022-11-07T03:03:10.814Z,65.10
2022-11-07T03:05:37.648Z,64.53
2022-11-07T03:08:04.516Z,64.53
2022-11-07T03:10:31.173Z,63.99
2022-11-07T03:12:57.734Z,63.71
2022-11-07T03:15:24.375Z,63.60
2022-11-07T03:17:51.006Z,62.74
2022-11-07T03:20:17.616Z,62.95
2022-11-07T03:22:44.242Z,62.78
2022-11-07T03:25:10.885Z,63.70
2022-11-07T03:27:46.467Z,63.44
2022-11-07T03:30:13.738Z,63.56
2022-11-07T03:32:40.427Z,63.94
2022-11-07T03:35:07.723Z,63.71
2022-11-07T03:37:34.402Z,64.04
2022-11-07T03:40:01.014Z,63.05
2022-11-07T03:42:27.718Z,63.15
2022-11-07T03:44:54.291Z,64.09
2022-11-07T03:47:20.922Z,64.61
2022-11-07T03:49:47.596Z,64.37
2022-11-07T03:52:14.211Z,64.48
2022-11-07T03:54:40.841Z,64.19
2022-11-07T03:57:07.505Z,64.69
2022-11-07T03:59:34.144Z,64.37
2022-11-07T04:02:00.830Z,64.30
2022-11-07T04:04:27.477Z,64.04
2022-11-07T04:06:55.284Z,63.30
2022-11-07T04:09:21.957Z,63.79
2022-11-07T04:12:07.389Z,64.39
2022-11-07T04:14:53.914Z,64.02
2022-11-07T04:17:20.793Z,63.89
2022-11-07T04:19:50.057Z,63.63
2022-11-07T04:22:17.271Z,63.31
2022-11-07T04:24:46.095Z,62.87
2022-11-07T04:27:33.329Z,62.90
2022-11-07T04:30:21.620Z,63.69
2022-11-07T04:32:50.434Z,64.33
2022-11-07T04:35:17.975Z,63.99
2022-11-07T04:37:47.947Z,63.67
2022-11-07T04:40:16.111Z,63.24
2022-11-07T04:42:43.340Z,63.90
2022-11-07T04:45:10.926Z,65.01
2022-11-07T04:47:40.347Z,67.52
2022-11-07T04:50:09.945Z,66.47
2022-11-07T04:52:37.018Z,65.79
2022-11-07T04:55:04.035Z,67.23
2022-11-07T04:57:30.701Z,67.74
2022-11-07T04:59:57.400Z,67.45
2022-11-07T05:02:27.910Z,67.82
2022-11-07T05:04:54.606Z,67.74
2022-11-07T05:07:21.624Z,66.93
2022-11-07T05:09:48.337Z,67.16
2022-11-07T05:12:18.121Z,66.73
2022-11-07T05:14:44.722Z,66.71
2022-11-07T05:17:15.265Z,66.48
2022-11-07T05:19:44.847Z,66.08
2022-11-07T05:22:30.973Z,68.11
2022-11-07T05:24:58.171Z,68.97
2022-11-07T05:27:25.219Z,68.24
2022-11-07T05:29:52.058Z,67.11
2022-11-07T05:32:19.129Z,66.42
2022-11-07T05:34:45.793Z,65.67
2022-11-07T05:37:13.550Z,65.53
2022-11-07T05:39:40.097Z,66.24
2022-11-07T05:42:07.526Z,68.17
2022-11-07T05:44:34.204Z,68.11
2022-11-07T05:47:01.614Z,68.21
2022-11-07T05:49:28.512Z,68.21
2022-11-07T05:51:55.455Z,66.52
2022-11-07T05:54:22.137Z,66.57
2022-11-07T05:56:48.730Z,66.10
2022-11-07T05:59:15.459Z,65.38
2022-11-07T06:01:42.274Z,65.58
2022-11-07T06:04:09.265Z,66.07
2022-11-07T06:06:36.024Z,65.87
2022-11-07T06:09:02.912Z,66.18
2022-11-07T06:11:30.815Z,65.75
2022-11-07T06:13:57.384Z,65.64
2022-11-07T06:16:24.886Z,65.38
2022-11-07T06:18:51.500Z,65.30
2022-11-07T06:21:18.069Z,64.72
2022-11-07T06:23:44.745Z,63.91
2022-11-07T06:26:11.329Z,63.59
2022-11-07T06:28:38.162Z,63.78
2022-11-07T06:31:05.352Z,63.26
2022-11-07T06:33:32.527Z,62.98
2022-11-07T06:36:11.414Z,63.91
2022-11-07T06:38:39.335Z,63.82
2022-11-07T06:41:14.525Z,64.07
2022-11-07T06:43:41.550Z,63.86
2022-11-07T06:46:11.968Z,64.05
2022-11-07T06:48:39.326Z,65.33
2022-11-07T06:51:07.803Z,65.39
2022-11-07T06:53:34.460Z,65.06
2022-11-07T06:56:02.649Z,65.48
2022-11-07T06:58:29.763Z,66.42
2022-11-07T07:01:04.755Z,66.91
2022-11-07T07:03:31.612Z,67.76
2022-11-07T07:06:02.937Z,67.15
2022-11-07T07:08:30.264Z,65.72
2022-11-07T07:10:57.218Z,65.26
2022-11-07T07:13:23.926Z,65.67
2022-11-07T07:15:55.136Z,65.33
2022-11-07T07:18:22.710Z,65.84
2022-11-07T07:20:50.290Z,65.89
2022-11-07T07:23:18.457Z,66.25
2022-11-07T07:25:46.582Z,64.85
2022-11-07T07:28:13.429Z,65.20
2022-11-07T07:30:40.010Z,64.27
2022-11-07T07:33:06.631Z,61.76
2022-11-07T07:35:33.785Z,62.97
2022-11-07T07:38:00.402Z,63.12
2022-11-07T07:40:27.044Z,62.57
2022-11-07T07:42:53.701Z,61.91
2022-11-07T07:45:20.412Z,62.19
2022-11-07T07:47:47.078Z,62.68
2022-11-07T07:50:14.067Z,63.89
2022-11-07T07:52:41.086Z,62.55
2022-11-07T07:55:09.454Z,61.62
2022-11-07T07:57:43.291Z,62.88
2022-11-07T08:00:12.129Z,63.26
2022-11-07T08:02:39.265Z,62.73
2022-11-07T08:05:06.490Z,62.18
2022-11-07T08:07:33.053Z,62.17
2022-11-07T08:10:09.797Z,64.12
2022-11-07T08:12:51.953Z,64.86
2022-11-07T08:15:20.309Z,62.67
2022-11-07T08:17:47.038Z,61.38
2022-11-07T08:20:15.864Z,61.51
2022-11-07T08:22:42.581Z,60.92
2022-11-07T08:25:11.558Z,60.32
2022-11-07T08:27:38.538Z,61.54
2022-11-07T08:30:07.484Z,62.40
2022-11-07T08:32:34.457Z,63.45
2022-11-07T08:35:01.167Z,65.27
2022-11-07T08:37:27.726Z,62.98
2022-11-07T08:39:54.290Z,62.37
2022-11-07T08:42:20.932Z,61.62
2022-11-07T08:44:47.481Z,61.09
2022-11-07T08:47:14.122Z,60.89
2022-11-07T08:49:40.732Z,62.37
2022-11-07T08:52:07.550Z,60.88
2022-11-07T08:54:34.248Z,60.42
2022-11-07T08:57:00.971Z,60.16
2022-11-07T08:59:29.348Z,59.51
2022-11-07T09:02:38.900Z,58.94
2022-11-07T09:04:43.080Z,60.13
2022-11-07T09:07:09.822Z,60.74
2022-11-07T09:09:36.540Z,59.06
2022-11-07T09:12:03.388Z,59.13
2022-11-07T09:14:30.194Z,57.63
2022-11-07T09:16:58.298Z,58.64
2022-11-07T09:19:24.997Z,58.08
2022-11-07T09:21:51.723Z,57.31
2022-11-07T09:24:18.538Z,56.54
2022-11-07T09:26:45.268Z,55.75
2022-11-07T09:29:11.964Z,54.84
2022-11-07T09:31:38.679Z,55.03
2022-11-07T09:34:07.496Z,55.47
2022-11-07T09:36:34.226Z,55.23
2022-11-07T09:39:01.265Z,54.94
2022-11-07T09:41:36.951Z,54.86
2022-11-07T09:44:37.340Z,54.08
2022-11-07T09:47:14.743Z,54.88
2022-11-07T09:49:46.607Z,54.37
2022-11-07T09:52:38.670Z,54.12
2022-11-07T09:55:20.512Z,56.09
2022-11-07T09:57:49.238Z,56.95
2022-11-07T10:00:23.482Z,54.68
2022-11-07T10:02:54.583Z,55.71
2022-11-07T10:05:27.308Z,54.96
2022-11-07T10:08:16.390Z,54.27
2022-11-07T10:10:58.079Z,54.47
2022-11-07T10:16:42.026Z,53.39
2022-11-07T10:19:08.688Z,53.59
2022-11-07T10:22:05.895Z,53.81
2022-11-07T10:25:11.200Z,52.86
2022-11-07T10:27:39.605Z,53.74
2022-11-07T10:30:19.967Z,51.79
2022-11-07T10:32:49.736Z,52.76
2022-11-07T10:35:48.637Z,52.40
2022-11-07T10:38:22.191Z,52.96
2022-11-07T10:40:50.576Z,52.91
2022-11-07T10:43:35.318Z,53.63
2022-11-07T10:46:11.317Z,53.58
2022-11-07T10:48:38.061Z,52.73
2022-11-07T10:51:04.864Z,52.08
2022-11-07T10:53:31.657Z,52.68
2022-11-07T10:55:59.067Z,51.99
2022-11-07T10:58:29.547Z,52.48
2022-11-07T11:01:02.478Z,53.57
2022-11-07T11:03:43.617Z,54.05
2022-11-07T11:06:17.921Z,54.13
2022-11-07T11:08:46.878Z,54.82
2022-11-07T11:11:32.892Z,55.56
2022-11-07T11:14:10.957Z,54.58
2022-11-07T11:16:40.220Z,54.50
2022-11-07T11:19:25.840Z,55.17
2022-11-07T11:21:56.113Z,54.15
2022-11-07T11:24:30.260Z,54.85
2022-11-07T11:27:04.996Z,54.08
2022-11-07T11:29:46.614Z,53.77
2022-11-07T11:32:35.517Z,53.44
2022-11-07T11:35:14.508Z,53.26
2022-11-07T11:37:45.654Z,54.15
2022-11-07T11:40:17.780Z,53.60
2022-11-07T11:43:04.293Z,54.51
2022-11-07T11:45:42.767Z,53.07
2022-11-07T11:48:24.732Z,51.35
2022-11-07T11:50:58.426Z,51.67
2022-11-07T11:53:25.203Z,52.34
2022-11-07T11:56:07.338Z,53.25
2022-11-07T11:58:59.995Z,53.46
2022-11-07T12:02:00.264Z,53.11
2022-11-07T12:04:54.733Z,53.23
2022-11-07T12:07:34.084Z,53.98
2022-11-07T12:10:07.977Z,52.59
2022-11-07T12:12:37.450Z,52.12
2022-11-07T12:15:22.064Z,52.93
2022-11-07T12:17:56.463Z,52.20
2022-11-07T12:20:25.830Z,51.72
2022-11-07T12:23:25.140Z,51.58
2022-11-07T12:26:18.204Z,52.46
2022-11-07T12:29:37.383Z,53.98
2022-11-07T12:32:06.925Z,53.33
2022-11-07T12:34:52.337Z,52.82
2022-11-07T12:38:00.496Z,52.99
2022-11-07T12:40:37.348Z,51.81
2022-11-07T12:43:24.856Z,51.97
2022-11-07T12:46:05.414Z,51.59
2022-11-07T12:48:53.206Z,53.27
2022-11-07T12:51:45.736Z,52.23
2022-11-07T12:54:33.814Z,52.17
2022-11-07T12:57:06.118Z,51.85
2022-11-07T12:59:45.002Z,52.35
2022-11-07T13:02:52.909Z,53.05
2022-11-07T13:05:22.358Z,52.64
2022-11-07T13:07:53.785Z,52.49
2022-11-07T13:10:56.287Z,52.46
2022-11-07T13:13:29.012Z,52.01
2022-11-07T13:16:20.089Z,51.84
2022-11-07T13:18:46.875Z,51.77
2022-11-07T13:21:13.605Z,51.80
2022-11-07T13:23:40.578Z,51.51
2022-11-07T13:26:32.431Z,51.36
2022-11-07T13:28:59.893Z,51.11
2022-11-07T13:31:32.522Z,51.53
2022-11-07T13:34:17.819Z,51.25
2022-11-07T13:36:46.125Z,51.65
2022-11-07T13:39:14.785Z,52.06
2022-11-07T13:41:44.711Z,51.17
2022-11-07T13:44:28.036Z,51.27
2022-11-07T13:46:57.413Z,51.02
2022-11-07T13:49:44.609Z,51.31
2022-11-07T13:52:21.116Z,51.27
2022-11-07T13:54:57.297Z,51.19
2022-11-07T13:57:31.698Z,51.56
2022-11-07T14:00:05.201Z,51.28
2022-11-07T14:02:35.466Z,51.42
2022-11-07T14:05:21.291Z,51.57
2022-11-07T14:07:52.471Z,51.45
2022-11-07T14:10:47.263Z,51.74
2022-11-07T14:13:39.644Z,51.74
2022-11-07T14:16:21.798Z,52.09
2022-11-07T14:19:02.305Z,52.35
2022-11-07T14:21:37.443Z,52.47
2022-11-07T14:24:28.913Z,52.59
2022-11-07T14:27:11.575Z,52.97
2022-11-07T14:29:38.291Z,53.03
2022-11-07T14:32:07.469Z,52.84
2022-11-07T14:34:36.198Z,53.30
2022-11-07T14:37:06.879Z,53.19
2022-11-07T14:39:33.961Z,53.02
2022-11-07T14:42:03.161Z,53.29
2022-11-07T14:44:47.570Z,53.40
2022-11-07T14:47:20.945Z,53.35
2022-11-07T14:49:50.714Z,53.32
2022-11-07T14:52:19.501Z,53.57
2022-11-07T14:54:47.571Z,53.41
2022-11-07T14:57:14.985Z,53.57
2022-11-07T14:59:42.567Z,53.47
2022-11-07T15:02:12.455Z,54.27
2022-11-07T15:04:47.325Z,54.15
2022-11-07T15:07:33.873Z,54.05
2022-11-07T15:10:14.596Z,54.21
2022-11-07T15:12:52.980Z,54.29
2022-11-07T15:15:21.145Z,54.34
2022-11-07T15:17:51.103Z,54.47
2022-11-07T15:20:24.676Z,54.15
2022-11-07T15:22:51.429Z,54.47
2022-11-07T15:25:26.514Z,54.43
2022-11-07T15:27:53.899Z,54.57
2022-11-07T15:30:34.092Z,54.47
2022-11-07T15:33:00.869Z,54.63
2022-11-07T15:35:43.543Z,54.58
2022-11-07T15:38:20.644Z,54.78
2022-11-07T15:40:47.852Z,54.48
2022-11-07T15:43:15.104Z,54.48
2022-11-07T15:45:42.913Z,54.68
2022-11-07T15:48:16.601Z,54.58
2022-11-07T15:50:45.731Z,54.66
2022-11-07T15:53:18.209Z,54.86
2022-11-07T15:55:45.153Z,57.84
2022-11-07T15:58:15.420Z,58.48
2022-11-07T16:00:47.656Z,57.84
2022-11-07T16:03:16.801Z,57.34
2022-11-07T16:05:48.911Z,56.65
2022-11-07T16:08:21.351Z,56.67
2022-11-07T16:10:54.975Z,56.46
2022-11-07T16:13:21.755Z,56.32
2022-11-07T16:15:55.812Z,56.16
2022-11-07T16:18:22.811Z,57.52
2022-11-07T16:20:50.716Z,57.15
2022-11-07T16:23:20.881Z,56.96
2022-11-07T16:25:50.213Z,56.82
2022-11-07T16:28:17.224Z,57.32
2022-11-07T16:30:44.239Z,57.42
2022-11-07T16:33:12.714Z,57.04
2022-11-07T16:35:40.811Z,57.04
2022-11-07T16:38:16.514Z,57.11
2022-11-07T16:40:43.772Z,57.47
2022-11-07T16:43:10.933Z,57.13
2022-11-07T16:45:43.604Z,56.89
2022-11-07T16:48:18.989Z,57.30
2022-11-07T16:50:46.436Z,56.88
2022-11-07T16:53:13.732Z,56.84
2022-11-07T16:55:45.535Z,56.23
2022-11-07T16:58:29.533Z,56.89
2022-11-07T17:00:59.540Z,57.05
2022-11-07T17:03:26.624Z,57.21
2022-11-07T17:05:55.249Z,56.98
2022-11-07T17:08:26.805Z,56.89
2022-11-07T17:10:53.783Z,56.63
2022-11-07T17:13:22.376Z,56.72
2022-11-07T17:15:49.920Z,56.71
2022-11-07T17:18:21.562Z,56.79
2022-11-07T17:20:51.716Z,56.66
2022-11-07T17:23:18.920Z,56.76
2022-11-07T17:25:50.884Z,57.28
2022-11-07T17:28:17.878Z,57.03
2022-11-07T17:30:52.173Z,56.63
2022-11-07T17:33:18.897Z,56.57
2022-11-07T17:36:02.622Z,56.95
2022-11-07T17:38:40.945Z,56.99
2022-11-07T17:41:17.857Z,56.88
2022-11-07T17:43:50.213Z,56.86
2022-11-07T17:46:22.287Z,56.53
2022-11-07T17:49:17.214Z,57.08
2022-11-07T17:51:44.429Z,57.65
2022-11-07T17:54:13.281Z,57.55
2022-11-07T17:56:41.626Z,57.49
2022-11-07T17:59:12.898Z,58.10
2022-11-07T18:01:40.779Z,57.42
2022-11-07T18:04:09.599Z,57.23
2022-11-07T18:07:11.972Z,57.64
2022-11-07T18:09:40.479Z,57.64
2022-11-07T18:12:19.448Z,57.16
2022-11-07T18:14:50.426Z,56.88
2022-11-07T18:17:17.136Z,56.67
2022-11-07T18:19:43.978Z,57.75
2022-11-07T18:22:10.695Z,57.37
2022-11-07T18:24:37.939Z,56.75
2022-11-07T18:27:09.296Z,56.74
2022-11-07T18:29:37.127Z,56.30
2022-11-07T18:32:03.898Z,56.64
2022-11-07T18:34:51.210Z,56.87
2022-11-07T18:37:18.862Z,57.09
2022-11-07T18:39:45.578Z,57.05
2022-11-07T18:42:12.186Z,56.93
2022-11-07T18:44:38.975Z,58.13
2022-11-07T18:47:05.651Z,58.78
2022-11-07T18:49:32.291Z,58.84
2022-11-07T18:51:58.896Z,58.13
2022-11-07T18:54:26.335Z,57.98
2022-11-07T18:56:52.972Z,57.79
2022-11-07T18:59:19.673Z,58.29
2022-11-07T19:01:46.538Z,57.73
2022-11-07T19:04:13.226Z,57.69
2022-11-07T19:06:55.773Z,57.16
2022-11-07T19:09:28.935Z,57.64
2022-11-07T19:11:56.750Z,57.77
2022-11-07T19:14:23.920Z,58.07
2022-11-07T19:16:50.614Z,57.89
2022-11-07T19:19:17.306Z,57.65
2022-11-07T19:21:44.230Z,57.91
2022-11-07T19:24:12.805Z,57.77
2022-11-07T19:26:39.662Z,57.81
2022-11-07T19:29:09.941Z,58.21
2022-11-07T19:31:37.284Z,58.02
2022-11-07T19:34:04.484Z,58.08
2022-11-07T19:36:31.637Z,58.02
2022-11-07T19:38:58.422Z,58.00
2022-11-07T19:41:25.000Z,57.95
2022-11-07T19:43:51.658Z,57.55
2022-11-07T19:46:21.241Z,57.52
2022-11-07T19:48:49.084Z,57.54
2022-11-07T19:51:21.539Z,57.35
2022-11-07T19:53:56.607Z,57.54
2022-11-07T19:56:25.114Z,57.43
2022-11-07T19:58:51.830Z,57.61
2022-11-07T20:01:21.077Z,57.35
2022-11-07T20:03:50.248Z,57.42
2022-11-07T20:06:20.323Z,57.36
2022-11-07T20:08:47.651Z,57.41
2022-11-07T20:11:15.824Z,57.45
2022-11-07T20:13:43.410Z,57.76
2022-11-07T20:16:10.578Z,58.16
2022-11-07T20:18:38.425Z,59.29
2022-11-07T20:21:12.918Z,58.95
2022-11-07T20:23:43.417Z,60.00
2022-11-07T20:26:45.402Z,60.27
2022-11-07T20:29:13.723Z,61.03
2022-11-07T20:31:41.794Z,61.25
2022-11-07T20:34:08.713Z,60.73
2022-11-07T20:37:05.662Z,60.08
2022-11-07T20:39:32.301Z,60.48
2022-11-07T20:41:59.100Z,60.07
2022-11-07T20:44:28.179Z,60.03
2022-11-07T20:46:56.628Z,59.61
2022-11-07T20:49:23.286Z,59.82
2022-11-07T20:51:52.002Z,59.67
2022-11-07T20:54:20.812Z,59.19
2022-11-07T20:56:47.527Z,59.27
2022-11-07T20:59:14.127Z,58.78
2022-11-07T21:01:40.866Z,58.60
2022-11-07T21:05:03.336Z,59.26
2022-11-07T21:07:29.611Z,59.25
2022-11-07T21:10:15.304Z,59.46
2022-11-07T21:12:42.901Z,58.75
2022-11-07T21:15:10.647Z,58.96
2022-11-07T21:17:40.202Z,58.95
2022-11-07T21:20:07.579Z,58.84
2022-11-07T21:22:36.952Z,58.89
2022-11-07T21:25:12.462Z,58.76
2022-11-07T21:27:39.033Z,59.04
2022-11-07T21:30:06.812Z,58.80
2022-11-07T21:32:34.551Z,59.73
2022-11-07T21:35:01.314Z,60.27
2022-11-07T21:37:31.931Z,60.42
2022-11-07T21:39:58.504Z,59.64
2022-11-07T21:42:27.796Z,59.36
2022-11-07T21:44:57.239Z,59.31
2022-11-07T21:47:24.010Z,59.21
2022-11-07T21:49:50.671Z,58.78
2022-11-07T21:52:17.364Z,58.90
2022-11-07T21:54:47.379Z,59.44
2022-11-07T21:57:14.009Z,59.38
2022-11-07T21:59:40.621Z,59.12
2022-11-07T22:02:26.361Z,58.85
2022-11-07T22:04:53.098Z,59.21
2022-11-07T22:07:19.696Z,61.58
2022-11-07T22:09:46.402Z,62.58
2022-11-07T22:12:13.396Z,62.32
2022-11-07T22:14:39.969Z,61.70
2022-11-07T22:17:06.655Z,60.63
2022-11-07T22:19:36.091Z,61.03
2022-11-07T22:22:03.696Z,60.60
2022-11-07T22:24:30.770Z,60.36
2022-11-07T22:26:57.434Z,59.98
2022-11-07T22:29:24.121Z,59.67
2022-11-07T22:31:50.716Z,60.18
2022-11-07T22:34:17.417Z,59.99
2022-11-07T22:36:44.027Z,59.67
2022-11-07T22:39:10.630Z,59.93
2022-11-07T22:41:37.332Z,59.91
2022-11-07T22:44:04.091Z,59.99
2022-11-07T22:46:31.333Z,59.49
2022-11-07T22:48:59.576Z,59.27
2022-11-07T22:51:31.974Z,59.42
2022-11-07T22:54:05.932Z,59.57
2022-11-07T22:56:35.295Z,59.70
2022-11-07T22:59:02.652Z,60.50
2022-11-07T23:01:37.178Z,60.17
2022-11-07T23:04:04.911Z,60.00
2022-11-07T23:06:31.940Z,59.97
2022-11-07T23:08:59.756Z,59.93
2022-11-07T23:11:51.309Z,59.36
2022-11-07T23:14:21.323Z,59.34
2022-11-07T23:16:50.778Z,59.33
2022-11-07T23:19:19.887Z,59.51
2022-11-07T23:21:46.808Z,60.34
2022-11-07T23:24:14.252Z,60.91
2022-11-07T23:26:41.180Z,61.21
2022-11-07T23:29:13.494Z,60.70
2022-11-07T23:31:41.519Z,60.51
2022-11-07T23:34:08.387Z,61.04
2022-11-07T23:36:35.381Z,61.94
2022-11-07T23:39:07.311Z,61.32
2022-11-07T23:41:34.866Z,60.67
2022-11-07T23:44:02.021Z,60.31
2022-11-07T23:46:47.517Z,60.23
2022-11-07T23:49:32.788Z,60.74
2022-11-07T23:51:59.408Z,60.35
2022-11-07T23:54:44.873Z,60.20
2022-11-07T23:57:11.503Z,60.20
2022-11-07T23:59:56.715Z,60.17
